sensor_id;sensor_type;location;lat;lon;timestamp;temperature;humidity
11772;DHT22;12556;55.748;13.194;2023-02-13T00:00:23;6.50;99.90
11772;DHT22;12556;55.748;13.194;2023-02-13T00:02:50;6.50;99.90
11772;DHT22;12556;55.748;13.194;2023-02-13T00:05:17;6.50;99.90
11772;DHT22;12556;55.748;13.194;2023-02-13T00:07:44;6.50;99.90
11772;DHT22;12556;55.748;13.194;2023-02-13T00:10:11;6.50;99.90
11772;DHT22;12556;55.748;13.194;2023-02-13T00:12:40;6.50;99.90
11772;DHT22;12556;55.748;13.194;2023-02-13T00:15:08;6.50;99.90
11772;DHT22;12556;55.748;13.194;2023-02-13T00:17:35;6.50;99.90
11772;DHT22;12556;55.748;13.194;2023-02-13T00:20:03;6.50;99.90
11772;DHT22;12556;55.748;13.194;2023-02-13T00:22:33;6.50;99.90
11772;DHT22;12556;55.748;13.194;2023-02-13T00:25:00;6.50;99.90
11772;DHT22;12556;55.748;13.194;2023-02-13T00:27:27;6.50;99.90
11772;DHT22;12556;55.748;13.194;2023-02-13T00:29:55;6.50;99.90
11772;DHT22;12556;55.748;13.194;2023-02-13T00:32:22;6.50;99.90
11772;DHT22;12556;55.748;13.194;2023-02-13T00:34:49;6.50;99.90
11772;DHT22;12556;55.748;13.194;2023-02-13T00:37:16;6.50;99.90
11772;DHT22;12556;55.748;13.194;2023-02-13T00:39:43;6.50;99.90
11772;DHT22;12556;55.748;13.194;2023-02-13T00:42:10;6.50;99.90
11772;DHT22;12556;55.748;13.194;2023-02-13T00:44:36;6.50;99.90
11772;DHT22;12556;55.748;13.194;2023-02-13T00:47:05;6.50;99.90
11772;DHT22;12556;55.748;13.194;2023-02-13T00:49:31;6.50;99.90
11772;DHT22;12556;55.748;13.194;2023-02-13T00:51:58;6.40;99.90
11772;DHT22;12556;55.748;13.194;2023-02-13T00:54:25;6.40;99.90
11772;DHT22;12556;55.748;13.194;2023-02-13T00:56:52;6.40;99.90
11772;DHT22;12556;55.748;13.194;2023-02-13T00:59:19;6.40;99.90
11772;DHT22;12556;55.748;13.194;2023-02-13T01:01:46;6.40;99.90
11772;DHT22;12556;55.748;13.194;2023-02-13T01:04:14;6.40;99.90
11772;DHT22;12556;55.748;13.194;2023-02-13T01:06:41;6.40;99.90
11772;DHT22;12556;55.748;13.194;2023-02-13T01:09:08;6.40;99.90
11772;DHT22;12556;55.748;13.194;2023-02-13T01:11:35;6.40;99.90
11772;DHT22;12556;55.748;13.194;2023-02-13T01:14:02;6.30;99.90
11772;DHT22;12556;55.748;13.194;2023-02-13T01:16:29;6.30;99.90
11772;DHT22;12556;55.748;13.194;2023-02-13T01:18:56;6.30;99.90
11772;DHT22;12556;55.748;13.194;2023-02-13T01:21:24;6.30;99.90
11772;DHT22;12556;55.748;13.194;2023-02-13T01:23:51;6.30;99.90
11772;DHT22;12556;55.748;13.194;2023-02-13T01:26:19;6.30;99.90
11772;DHT22;12556;55.748;13.194;2023-02-13T01:28:46;6.20;99.90
11772;DHT22;12556;55.748;13.194;2023-02-13T01:31:13;6.20;99.90
11772;DHT22;12556;55.748;13.194;2023-02-13T01:33:40;6.30;99.90
11772;DHT22;12556;55.748;13.194;2023-02-13T01:36:09;6.20;99.90
11772;DHT22;12556;55.748;13.194;2023-02-13T01:38:38;6.20;99.90
11772;DHT22;12556;55.748;13.194;2023-02-13T01:41:06;6.20;99.90
11772;DHT22;12556;55.748;13.194;2023-02-13T01:43:44;6.20;99.90
11772;DHT22;12556;55.748;13.194;2023-02-13T01:46:12;6.20;99.90
11772;DHT22;12556;55.748;13.194;2023-02-13T01:48:41;6.20;99.90
11772;DHT22;12556;55.748;13.194;2023-02-13T01:51:10;6.20;99.90
11772;DHT22;12556;55.748;13.194;2023-02-13T01:53:42;6.10;99.90
11772;DHT22;12556;55.748;13.194;2023-02-13T01:56:13;6.10;99.90
11772;DHT22;12556;55.748;13.194;2023-02-13T01:58:43;6.20;99.90
11772;DHT22;12556;55.748;13.194;2023-02-13T02:01:10;6.10;99.90
11772;DHT22;12556;55.748;13.194;2023-02-13T02:03:41;6.10;99.90
11772;DHT22;12556;55.748;13.194;2023-02-13T02:06:13;6.10;99.90
11772;DHT22;12556;55.748;13.194;2023-02-13T02:08:43;6.10;99.90
11772;DHT22;12556;55.748;13.194;2023-02-13T02:11:21;6.10;99.90
11772;DHT22;12556;55.748;13.194;2023-02-13T02:13:52;6.10;99.90
11772;DHT22;12556;55.748;13.194;2023-02-13T02:16:20;6.10;99.90
11772;DHT22;12556;55.748;13.194;2023-02-13T02:18:46;6.10;99.90
11772;DHT22;12556;55.748;13.194;2023-02-13T02:24:56;6.10;99.90
11772;DHT22;12556;55.748;13.194;2023-02-13T02:27:43;6.10;99.90
11772;DHT22;12556;55.748;13.194;2023-02-13T02:33:24;6.10;99.90
11772;DHT22;12556;55.748;13.194;2023-02-13T02:36:04;6.10;99.90
11772;DHT22;12556;55.748;13.194;2023-02-13T02:38:43;6.10;99.90
11772;DHT22;12556;55.748;13.194;2023-02-13T02:41:18;6.10;99.90
11772;DHT22;12556;55.748;13.194;2023-02-13T02:44:13;6.10;99.90
11772;DHT22;12556;55.748;13.194;2023-02-13T02:46:50;6.10;99.90
11772;DHT22;12556;55.748;13.194;2023-02-13T02:49:37;6.10;99.90
11772;DHT22;12556;55.748;13.194;2023-02-13T02:52:36;6.10;99.90
11772;DHT22;12556;55.748;13.194;2023-02-13T02:55:08;6.10;99.90
11772;DHT22;12556;55.748;13.194;2023-02-13T02:57:40;6.10;99.90
11772;DHT22;12556;55.748;13.194;2023-02-13T03:00:28;6.10;99.90
11772;DHT22;12556;55.748;13.194;2023-02-13T03:03:20;6.10;99.90
11772;DHT22;12556;55.748;13.194;2023-02-13T03:06:12;6.10;99.90
11772;DHT22;12556;55.748;13.194;2023-02-13T03:08:43;6.10;99.90
11772;DHT22;12556;55.748;13.194;2023-02-13T03:11:28;6.10;99.90
11772;DHT22;12556;55.748;13.194;2023-02-13T03:14:16;6.10;99.90
11772;DHT22;12556;55.748;13.194;2023-02-13T03:16:45;6.10;99.90
11772;DHT22;12556;55.748;13.194;2023-02-13T03:19:37;6.10;99.90
11772;DHT22;12556;55.748;13.194;2023-02-13T03:22:33;6.10;99.90
11772;DHT22;12556;55.748;13.194;2023-02-13T03:25:09;6.20;99.90
11772;DHT22;12556;55.748;13.194;2023-02-13T03:27:42;6.20;99.90
11772;DHT22;12556;55.748;13.194;2023-02-13T03:30:38;6.20;99.90
11772;DHT22;12556;55.748;13.194;2023-02-13T03:33:20;6.20;99.90
11772;DHT22;12556;55.748;13.194;2023-02-13T03:35:55;6.20;99.90
11772;DHT22;12556;55.748;13.194;2023-02-13T03:38:49;6.10;99.90
11772;DHT22;12556;55.748;13.194;2023-02-13T03:41:21;6.20;99.90
11772;DHT22;12556;55.748;13.194;2023-02-13T03:43:57;6.20;99.90
11772;DHT22;12556;55.748;13.194;2023-02-13T03:46:29;6.20;99.90
11772;DHT22;12556;55.748;13.194;2023-02-13T03:48:58;6.20;99.90
11772;DHT22;12556;55.748;13.194;2023-02-13T03:51:49;6.20;99.90
11772;DHT22;12556;55.748;13.194;2023-02-13T03:54:22;6.20;99.90
11772;DHT22;12556;55.748;13.194;2023-02-13T03:57:07;6.20;99.90
11772;DHT22;12556;55.748;13.194;2023-02-13T03:59:53;6.20;99.90
11772;DHT22;12556;55.748;13.194;2023-02-13T04:02:25;6.20;99.90
11772;DHT22;12556;55.748;13.194;2023-02-13T04:05:00;6.20;99.90
11772;DHT22;12556;55.748;13.194;2023-02-13T04:07:28;6.20;99.90
11772;DHT22;12556;55.748;13.194;2023-02-13T04:09:58;6.20;99.90
11772;DHT22;12556;55.748;13.194;2023-02-13T04:12:34;6.20;99.90
11772;DHT22;12556;55.748;13.194;2023-02-13T04:15:07;6.20;99.90
11772;DHT22;12556;55.748;13.194;2023-02-13T04:17:37;6.20;99.90
11772;DHT22;12556;55.748;13.194;2023-02-13T04:20:07;6.20;99.90
11772;DHT22;12556;55.748;13.194;2023-02-13T04:22:41;6.10;99.90
11772;DHT22;12556;55.748;13.194;2023-02-13T04:25:10;6.20;99.90
11772;DHT22;12556;55.748;13.194;2023-02-13T04:27:38;6.20;99.90
11772;DHT22;12556;55.748;13.194;2023-02-13T04:30:06;6.10;99.90
11772;DHT22;12556;55.748;13.194;2023-02-13T04:32:33;6.10;99.90
11772;DHT22;12556;55.748;13.194;2023-02-13T04:35:00;6.10;99.90
11772;DHT22;12556;55.748;13.194;2023-02-13T04:37:27;6.10;99.90
11772;DHT22;12556;55.748;13.194;2023-02-13T04:39:54;6.10;99.90
11772;DHT22;12556;55.748;13.194;2023-02-13T04:42:22;6.10;99.90
11772;DHT22;12556;55.748;13.194;2023-02-13T04:44:49;6.10;99.90
11772;DHT22;12556;55.748;13.194;2023-02-13T04:47:16;6.10;99.90
11772;DHT22;12556;55.748;13.194;2023-02-13T04:49:43;6.10;99.90
11772;DHT22;12556;55.748;13.194;2023-02-13T04:52:10;6.10;99.90
11772;DHT22;12556;55.748;13.194;2023-02-13T04:54:36;6.10;99.90
11772;DHT22;12556;55.748;13.194;2023-02-13T04:57:03;6.00;99.90
11772;DHT22;12556;55.748;13.194;2023-02-13T04:59:31;6.10;99.90
11772;DHT22;12556;55.748;13.194;2023-02-13T05:01:58;6.00;99.90
11772;DHT22;12556;55.748;13.194;2023-02-13T05:04:25;6.00;99.90
11772;DHT22;12556;55.748;13.194;2023-02-13T05:06:53;6.00;99.90
11772;DHT22;12556;55.748;13.194;2023-02-13T05:09:20;6.00;99.90
11772;DHT22;12556;55.748;13.194;2023-02-13T05:11:50;6.00;99.90
11772;DHT22;12556;55.748;13.194;2023-02-13T05:14:17;6.00;99.90
11772;DHT22;12556;55.748;13.194;2023-02-13T05:16:46;6.00;99.90
11772;DHT22;12556;55.748;13.194;2023-02-13T05:19:14;6.00;99.90
11772;DHT22;12556;55.748;13.194;2023-02-13T05:21:41;6.00;99.90
11772;DHT22;12556;55.748;13.194;2023-02-13T05:24:25;5.90;99.90
11772;DHT22;12556;55.748;13.194;2023-02-13T05:26:52;5.90;99.90
11772;DHT22;12556;55.748;13.194;2023-02-13T05:29:19;5.90;99.90
11772;DHT22;12556;55.748;13.194;2023-02-13T05:31:49;5.90;99.90
11772;DHT22;12556;55.748;13.194;2023-02-13T05:34:17;5.90;99.90
11772;DHT22;12556;55.748;13.194;2023-02-13T05:36:43;5.90;99.90
11772;DHT22;12556;55.748;13.194;2023-02-13T05:39:10;5.90;99.90
11772;DHT22;12556;55.748;13.194;2023-02-13T05:41:37;5.80;99.90
11772;DHT22;12556;55.748;13.194;2023-02-13T05:44:04;5.80;99.90
11772;DHT22;12556;55.748;13.194;2023-02-13T05:46:31;5.80;99.90
11772;DHT22;12556;55.748;13.194;2023-02-13T05:49:00;5.70;99.90
11772;DHT22;12556;55.748;13.194;2023-02-13T05:51:27;5.70;99.90
11772;DHT22;12556;55.748;13.194;2023-02-13T05:53:53;5.70;99.90
11772;DHT22;12556;55.748;13.194;2023-02-13T05:56:20;5.60;99.90
11772;DHT22;12556;55.748;13.194;2023-02-13T05:58:50;5.60;99.90
11772;DHT22;12556;55.748;13.194;2023-02-13T06:01:17;5.60;99.90
11772;DHT22;12556;55.748;13.194;2023-02-13T06:03:44;5.60;99.90
11772;DHT22;12556;55.748;13.194;2023-02-13T06:06:13;5.50;99.90
11772;DHT22;12556;55.748;13.194;2023-02-13T06:08:40;5.50;99.90
11772;DHT22;12556;55.748;13.194;2023-02-13T06:11:07;5.50;99.90
11772;DHT22;12556;55.748;13.194;2023-02-13T06:13:35;5.50;99.90
11772;DHT22;12556;55.748;13.194;2023-02-13T06:16:05;5.50;99.90
11772;DHT22;12556;55.748;13.194;2023-02-13T06:18:32;5.50;99.90
11772;DHT22;12556;55.748;13.194;2023-02-13T06:20:59;5.40;99.90
11772;DHT22;12556;55.748;13.194;2023-02-13T06:23:28;5.40;99.90
11772;DHT22;12556;55.748;13.194;2023-02-13T06:25:55;5.40;99.90
11772;DHT22;12556;55.748;13.194;2023-02-13T06:28:22;5.40;99.90
11772;DHT22;12556;55.748;13.194;2023-02-13T06:30:49;5.40;99.90
11772;DHT22;12556;55.748;13.194;2023-02-13T06:33:16;5.40;99.90
11772;DHT22;12556;55.748;13.194;2023-02-13T06:35:42;5.40;99.90
11772;DHT22;12556;55.748;13.194;2023-02-13T06:38:10;5.50;99.90
11772;DHT22;12556;55.748;13.194;2023-02-13T06:40:38;5.40;99.90
11772;DHT22;12556;55.748;13.194;2023-02-13T06:43:05;5.40;99.90
11772;DHT22;12556;55.748;13.194;2023-02-13T06:45:32;5.40;99.90
11772;DHT22;12556;55.748;13.194;2023-02-13T06:47:59;5.40;99.90
11772;DHT22;12556;55.748;13.194;2023-02-13T06:50:25;5.40;99.90
11772;DHT22;12556;55.748;13.194;2023-02-13T06:52:52;5.40;99.90
11772;DHT22;12556;55.748;13.194;2023-02-13T06:55:20;5.40;99.90
11772;DHT22;12556;55.748;13.194;2023-02-13T06:57:48;5.30;99.90
11772;DHT22;12556;55.748;13.194;2023-02-13T07:00:16;5.30;99.90
11772;DHT22;12556;55.748;13.194;2023-02-13T07:02:45;5.30;99.90
11772;DHT22;12556;55.748;13.194;2023-02-13T07:05:12;5.30;99.90
11772;DHT22;12556;55.748;13.194;2023-02-13T07:07:41;5.30;99.90
11772;DHT22;12556;55.748;13.194;2023-02-13T07:10:10;5.30;99.90
11772;DHT22;12556;55.748;13.194;2023-02-13T07:12:38;5.30;99.90
11772;DHT22;12556;55.748;13.194;2023-02-13T07:15:07;5.30;99.90
11772;DHT22;12556;55.748;13.194;2023-02-13T07:17:34;5.30;99.90
11772;DHT22;12556;55.748;13.194;2023-02-13T07:20:02;5.20;99.90
11772;DHT22;12556;55.748;13.194;2023-02-13T07:22:30;5.30;99.90
11772;DHT22;12556;55.748;13.194;2023-02-13T07:24:57;5.30;99.90
11772;DHT22;12556;55.748;13.194;2023-02-13T07:27:24;5.20;99.90
11772;DHT22;12556;55.748;13.194;2023-02-13T07:29:54;5.20;99.90
11772;DHT22;12556;55.748;13.194;2023-02-13T07:32:22;5.20;99.90
11772;DHT22;12556;55.748;13.194;2023-02-13T07:34:49;5.20;99.90
11772;DHT22;12556;55.748;13.194;2023-02-13T07:37:16;5.30;99.90
11772;DHT22;12556;55.748;13.194;2023-02-13T07:39:43;5.30;99.90
11772;DHT22;12556;55.748;13.194;2023-02-13T07:42:10;5.30;99.90
11772;DHT22;12556;55.748;13.194;2023-02-13T07:44:37;5.40;99.90
11772;DHT22;12556;55.748;13.194;2023-02-13T07:47:04;5.40;99.90
11772;DHT22;12556;55.748;13.194;2023-02-13T07:49:32;5.40;99.90
11772;DHT22;12556;55.748;13.194;2023-02-13T07:51:59;5.50;99.90
11772;DHT22;12556;55.748;13.194;2023-02-13T07:54:26;5.50;99.90
11772;DHT22;12556;55.748;13.194;2023-02-13T07:56:53;5.60;99.90
11772;DHT22;12556;55.748;13.194;2023-02-13T07:59:20;5.60;99.90
11772;DHT22;12556;55.748;13.194;2023-02-13T08:01:47;5.70;99.90
11772;DHT22;12556;55.748;13.194;2023-02-13T08:04:14;5.70;99.90
11772;DHT22;12556;55.748;13.194;2023-02-13T08:06:42;5.70;99.90
11772;DHT22;12556;55.748;13.194;2023-02-13T08:09:17;5.80;99.90
11772;DHT22;12556;55.748;13.194;2023-02-13T08:12:01;5.80;99.90
11772;DHT22;12556;55.748;13.194;2023-02-13T08:14:28;5.90;99.90
11772;DHT22;12556;55.748;13.194;2023-02-13T08:16:58;5.90;99.90
11772;DHT22;12556;55.748;13.194;2023-02-13T08:19:25;6.00;99.90
11772;DHT22;12556;55.748;13.194;2023-02-13T08:21:54;6.00;99.90
11772;DHT22;12556;55.748;13.194;2023-02-13T08:24:21;6.10;99.90
11772;DHT22;12556;55.748;13.194;2023-02-13T08:26:48;6.20;99.90
11772;DHT22;12556;55.748;13.194;2023-02-13T08:29:15;6.20;99.90
11772;DHT22;12556;55.748;13.194;2023-02-13T08:31:42;6.30;99.90
11772;DHT22;12556;55.748;13.194;2023-02-13T08:34:09;6.30;99.90
11772;DHT22;12556;55.748;13.194;2023-02-13T08:36:36;6.40;99.90
11772;DHT22;12556;55.748;13.194;2023-02-13T08:39:04;6.50;99.90
11772;DHT22;12556;55.748;13.194;2023-02-13T08:41:31;6.50;99.90
11772;DHT22;12556;55.748;13.194;2023-02-13T08:43:58;6.50;99.90
11772;DHT22;12556;55.748;13.194;2023-02-13T08:46:25;6.60;99.90
11772;DHT22;12556;55.748;13.194;2023-02-13T08:48:52;6.60;99.90
11772;DHT22;12556;55.748;13.194;2023-02-13T08:51:18;6.70;99.90
11772;DHT22;12556;55.748;13.194;2023-02-13T08:53:45;6.60;99.90
11772;DHT22;12556;55.748;13.194;2023-02-13T08:56:13;6.70;99.90
11772;DHT22;12556;55.748;13.194;2023-02-13T08:58:41;6.70;99.90
11772;DHT22;12556;55.748;13.194;2023-02-13T09:01:08;6.80;99.90
11772;DHT22;12556;55.748;13.194;2023-02-13T09:03:35;6.80;99.90
11772;DHT22;12556;55.748;13.194;2023-02-13T09:06:02;6.80;99.90
11772;DHT22;12556;55.748;13.194;2023-02-13T09:08:29;6.90;99.90
11772;DHT22;12556;55.748;13.194;2023-02-13T09:10:58;6.90;99.90
11772;DHT22;12556;55.748;13.194;2023-02-13T09:13:28;6.90;99.90
11772;DHT22;12556;55.748;13.194;2023-02-13T09:15:58;7.00;99.90
11772;DHT22;12556;55.748;13.194;2023-02-13T09:18:25;7.00;99.90
11772;DHT22;12556;55.748;13.194;2023-02-13T09:20:57;7.10;99.90
11772;DHT22;12556;55.748;13.194;2023-02-13T09:23:25;7.10;99.90
11772;DHT22;12556;55.748;13.194;2023-02-13T09:25:52;7.10;99.90
11772;DHT22;12556;55.748;13.194;2023-02-13T09:28:18;7.20;99.90
11772;DHT22;12556;55.748;13.194;2023-02-13T09:30:47;7.20;99.90
11772;DHT22;12556;55.748;13.194;2023-02-13T09:33:14;7.20;99.90
11772;DHT22;12556;55.748;13.194;2023-02-13T09:35:41;7.20;99.90
11772;DHT22;12556;55.748;13.194;2023-02-13T09:38:10;7.30;99.90
11772;DHT22;12556;55.748;13.194;2023-02-13T09:40:41;7.30;99.90
11772;DHT22;12556;55.748;13.194;2023-02-13T09:43:13;7.30;99.90
11772;DHT22;12556;55.748;13.194;2023-02-13T09:45:43;7.40;99.90
11772;DHT22;12556;55.748;13.194;2023-02-13T09:48:18;7.40;99.90
11772;DHT22;12556;55.748;13.194;2023-02-13T09:50:47;7.50;99.90
11772;DHT22;12556;55.748;13.194;2023-02-13T09:53:20;7.50;99.90
11772;DHT22;12556;55.748;13.194;2023-02-13T09:55:54;7.60;99.90
11772;DHT22;12556;55.748;13.194;2023-02-13T09:58:37;7.70;99.90
11772;DHT22;12556;55.748;13.194;2023-02-13T10:01:16;7.70;99.90
11772;DHT22;12556;55.748;13.194;2023-02-13T10:03:52;7.80;99.90
11772;DHT22;12556;55.748;13.194;2023-02-13T10:06:23;7.90;99.90
11772;DHT22;12556;55.748;13.194;2023-02-13T10:09:01;8.00;99.90
11772;DHT22;12556;55.748;13.194;2023-02-13T10:11:51;8.10;99.90
11772;DHT22;12556;55.748;13.194;2023-02-13T10:14:25;8.20;99.90
11772;DHT22;12556;55.748;13.194;2023-02-13T10:16:54;8.40;99.90
11772;DHT22;12556;55.748;13.194;2023-02-13T10:19:33;8.50;99.90
11772;DHT22;12556;55.748;13.194;2023-02-13T10:22:04;8.50;99.90
11772;DHT22;12556;55.748;13.194;2023-02-13T10:24:35;8.50;99.90
11772;DHT22;12556;55.748;13.194;2023-02-13T10:27:14;8.70;99.90
11772;DHT22;12556;55.748;13.194;2023-02-13T10:29:45;8.70;99.90
11772;DHT22;12556;55.748;13.194;2023-02-13T10:32:54;8.80;99.90
11772;DHT22;12556;55.748;13.194;2023-02-13T10:35:37;9.00;99.90
11772;DHT22;12556;55.748;13.194;2023-02-13T10:38:14;9.00;99.90
11772;DHT22;12556;55.748;13.194;2023-02-13T10:40:53;9.20;99.90
11772;DHT22;12556;55.748;13.194;2023-02-13T10:43:27;9.30;99.90
11772;DHT22;12556;55.748;13.194;2023-02-13T10:46:02;9.30;99.90
11772;DHT22;12556;55.748;13.194;2023-02-13T10:48:46;9.50;99.90
11772;DHT22;12556;55.748;13.194;2023-02-13T10:51:23;9.60;99.90
11772;DHT22;12556;55.748;13.194;2023-02-13T10:54:04;9.70;99.90
11772;DHT22;12556;55.748;13.194;2023-02-13T10:56:37;9.90;99.90
11772;DHT22;12556;55.748;13.194;2023-02-13T10:59:21;9.90;99.90
11772;DHT22;12556;55.748;13.194;2023-02-13T11:01:55;10.00;99.90
11772;DHT22;12556;55.748;13.194;2023-02-13T11:04:23;10.10;99.90
11772;DHT22;12556;55.748;13.194;2023-02-13T11:06:54;10.20;99.90
11772;DHT22;12556;55.748;13.194;2023-02-13T11:09:22;10.30;99.90
11772;DHT22;12556;55.748;13.194;2023-02-13T11:11:49;10.40;99.90
11772;DHT22;12556;55.748;13.194;2023-02-13T11:14:17;10.40;99.90
11772;DHT22;12556;55.748;13.194;2023-02-13T11:16:58;10.40;99.90
11772;DHT22;12556;55.748;13.194;2023-02-13T11:19:31;10.50;99.90
11772;DHT22;12556;55.748;13.194;2023-02-13T11:22:02;10.50;99.90
11772;DHT22;12556;55.748;13.194;2023-02-13T11:24:30;10.70;99.90
11772;DHT22;12556;55.748;13.194;2023-02-13T11:27:00;10.70;99.90
11772;DHT22;12556;55.748;13.194;2023-02-13T11:29:31;10.70;99.90
11772;DHT22;12556;55.748;13.194;2023-02-13T11:32:17;10.70;99.90
11772;DHT22;12556;55.748;13.194;2023-02-13T11:34:45;10.80;99.90
11772;DHT22;12556;55.748;13.194;2023-02-13T11:37:25;10.80;99.90
11772;DHT22;12556;55.748;13.194;2023-02-13T11:39:53;10.90;99.90
11772;DHT22;12556;55.748;13.194;2023-02-13T11:42:26;10.80;99.90
11772;DHT22;12556;55.748;13.194;2023-02-13T11:44:56;10.80;99.90
11772;DHT22;12556;55.748;13.194;2023-02-13T11:47:33;10.90;99.90
11772;DHT22;12556;55.748;13.194;2023-02-13T11:50:01;11.00;99.90
11772;DHT22;12556;55.748;13.194;2023-02-13T11:52:31;11.10;99.90
11772;DHT22;12556;55.748;13.194;2023-02-13T11:54:59;11.20;99.90
11772;DHT22;12556;55.748;13.194;2023-02-13T11:57:29;11.10;99.90
11772;DHT22;12556;55.748;13.194;2023-02-13T11:59:57;11.20;99.90
11772;DHT22;12556;55.748;13.194;2023-02-13T12:02:26;11.50;99.90
11772;DHT22;12556;55.748;13.194;2023-02-13T12:04:55;11.50;99.90
11772;DHT22;12556;55.748;13.194;2023-02-13T12:07:41;11.50;99.90
11772;DHT22;12556;55.748;13.194;2023-02-13T12:10:19;11.40;99.90
11772;DHT22;12556;55.748;13.194;2023-02-13T12:12:53;11.40;99.90
11772;DHT22;12556;55.748;13.194;2023-02-13T12:15:22;11.30;99.90
11772;DHT22;12556;55.748;13.194;2023-02-13T12:18:03;11.50;99.90
11772;DHT22;12556;55.748;13.194;2023-02-13T12:20:39;11.70;99.90
11772;DHT22;12556;55.748;13.194;2023-02-13T12:23:19;11.80;99.90
11772;DHT22;12556;55.748;13.194;2023-02-13T12:26:06;11.80;99.90
11772;DHT22;12556;55.748;13.194;2023-02-13T12:28:48;11.70;99.90
11772;DHT22;12556;55.748;13.194;2023-02-13T12:31:38;11.60;99.90
11772;DHT22;12556;55.748;13.194;2023-02-13T12:40:40;11.50;99.90
11772;DHT22;12556;55.748;13.194;2023-02-13T12:43:26;11.50;99.90
11772;DHT22;12556;55.748;13.194;2023-02-13T12:46:00;11.40;99.90
11772;DHT22;12556;55.748;13.194;2023-02-13T12:48:35;11.30;99.90
11772;DHT22;12556;55.748;13.194;2023-02-13T12:51:20;11.30;99.90
11772;DHT22;12556;55.748;13.194;2023-02-13T12:54:03;11.40;99.90
11772;DHT22;12556;55.748;13.194;2023-02-13T12:56:50;11.50;99.90
11772;DHT22;12556;55.748;13.194;2023-02-13T12:59:26;11.50;99.90
11772;DHT22;12556;55.748;13.194;2023-02-13T13:05:05;11.10;99.90
11772;DHT22;12556;55.748;13.194;2023-02-13T13:07:49;11.10;99.90
11772;DHT22;12556;55.748;13.194;2023-02-13T13:10:36;11.10;99.90
11772;DHT22;12556;55.748;13.194;2023-02-13T13:13:18;10.90;99.90
11772;DHT22;12556;55.748;13.194;2023-02-13T13:15:53;10.80;99.90
11772;DHT22;12556;55.748;13.194;2023-02-13T13:18:32;10.60;99.90
11772;DHT22;12556;55.748;13.194;2023-02-13T13:21:20;10.40;99.90
11772;DHT22;12556;55.748;13.194;2023-02-13T13:23:54;10.30;99.90
11772;DHT22;12556;55.748;13.194;2023-02-13T13:26:29;10.10;99.90
11772;DHT22;12556;55.748;13.194;2023-02-13T13:29:04;10.10;99.90
11772;DHT22;12556;55.748;13.194;2023-02-13T13:31:34;10.00;99.90
11772;DHT22;12556;55.748;13.194;2023-02-13T13:34:05;9.90;99.90
11772;DHT22;12556;55.748;13.194;2023-02-13T13:36:39;9.80;99.90
11772;DHT22;12556;55.748;13.194;2023-02-13T13:39:16;9.70;99.90
11772;DHT22;12556;55.748;13.194;2023-02-13T13:41:50;9.60;99.90
11772;DHT22;12556;55.748;13.194;2023-02-13T13:44:38;9.50;99.90
11772;DHT22;12556;55.748;13.194;2023-02-13T13:47:19;9.50;99.90
11772;DHT22;12556;55.748;13.194;2023-02-13T13:49:50;9.40;99.90
11772;DHT22;12556;55.748;13.194;2023-02-13T13:52:21;9.30;99.90
11772;DHT22;12556;55.748;13.194;2023-02-13T13:54:49;9.30;99.90
11772;DHT22;12556;55.748;13.194;2023-02-13T13:57:18;9.20;99.90
11772;DHT22;12556;55.748;13.194;2023-02-13T13:59:59;9.20;99.90
11772;DHT22;12556;55.748;13.194;2023-02-13T14:02:37;9.20;99.90
11772;DHT22;12556;55.748;13.194;2023-02-13T14:05:18;9.20;99.90
11772;DHT22;12556;55.748;13.194;2023-02-13T14:07:47;9.10;99.90
11772;DHT22;12556;55.748;13.194;2023-02-13T14:13:36;9.00;99.90
11772;DHT22;12556;55.748;13.194;2023-02-13T14:16:09;8.90;99.90
11772;DHT22;12556;55.748;13.194;2023-02-13T14:18:37;8.90;99.90
11772;DHT22;12556;55.748;13.194;2023-02-13T14:21:10;8.90;99.90
11772;DHT22;12556;55.748;13.194;2023-02-13T14:23:44;8.80;99.90
11772;DHT22;12556;55.748;13.194;2023-02-13T14:26:36;8.80;99.90
11772;DHT22;12556;55.748;13.194;2023-02-13T14:29:27;8.70;99.90
11772;DHT22;12556;55.748;13.194;2023-02-13T14:32:06;8.70;99.90
11772;DHT22;12556;55.748;13.194;2023-02-13T14:34:35;8.70;99.90
11772;DHT22;12556;55.748;13.194;2023-02-13T14:37:16;8.60;99.90
11772;DHT22;12556;55.748;13.194;2023-02-13T14:43:27;8.60;99.90
11772;DHT22;12556;55.748;13.194;2023-02-13T14:45:56;8.50;99.90
11772;DHT22;12556;55.748;13.194;2023-02-13T14:48:33;8.50;99.90
11772;DHT22;12556;55.748;13.194;2023-02-13T14:51:01;8.50;99.90
11772;DHT22;12556;55.748;13.194;2023-02-13T14:53:31;8.50;99.90
11772;DHT22;12556;55.748;13.194;2023-02-13T14:56:05;8.50;99.90
11772;DHT22;12556;55.748;13.194;2023-02-13T14:58:35;8.40;99.90
11772;DHT22;12556;55.748;13.194;2023-02-13T15:01:04;8.40;99.90
11772;DHT22;12556;55.748;13.194;2023-02-13T15:03:37;8.30;99.90
11772;DHT22;12556;55.748;13.194;2023-02-13T15:06:13;8.30;99.90
11772;DHT22;12556;55.748;13.194;2023-02-13T15:08:46;8.30;99.90
11772;DHT22;12556;55.748;13.194;2023-02-13T15:11:31;8.30;99.90
11772;DHT22;12556;55.748;13.194;2023-02-13T15:14:15;8.20;99.90
11772;DHT22;12556;55.748;13.194;2023-02-13T15:16:43;8.20;99.90
11772;DHT22;12556;55.748;13.194;2023-02-13T15:19:16;8.10;99.90
11772;DHT22;12556;55.748;13.194;2023-02-13T15:21:50;8.10;99.90
11772;DHT22;12556;55.748;13.194;2023-02-13T15:24:19;8.10;99.90
11772;DHT22;12556;55.748;13.194;2023-02-13T15:27:12;8.00;99.90
11772;DHT22;12556;55.748;13.194;2023-02-13T15:29:52;8.00;99.90
11772;DHT22;12556;55.748;13.194;2023-02-13T15:32:24;7.90;99.90
11772;DHT22;12556;55.748;13.194;2023-02-13T15:34:53;7.90;99.90
11772;DHT22;12556;55.748;13.194;2023-02-13T15:37:21;7.80;99.90
11772;DHT22;12556;55.748;13.194;2023-02-13T15:39:48;7.80;99.90
11772;DHT22;12556;55.748;13.194;2023-02-13T15:42:15;7.70;99.90
11772;DHT22;12556;55.748;13.194;2023-02-13T15:44:44;7.70;99.90
11772;DHT22;12556;55.748;13.194;2023-02-13T15:47:16;7.70;99.90
11772;DHT22;12556;55.748;13.194;2023-02-13T15:49:45;7.60;99.90
11772;DHT22;12556;55.748;13.194;2023-02-13T15:52:18;7.50;99.90
11772;DHT22;12556;55.748;13.194;2023-02-13T15:54:48;7.50;99.90
11772;DHT22;12556;55.748;13.194;2023-02-13T15:57:16;7.50;99.90
11772;DHT22;12556;55.748;13.194;2023-02-13T15:59:44;7.40;99.90
11772;DHT22;12556;55.748;13.194;2023-02-13T16:02:13;7.40;99.90
11772;DHT22;12556;55.748;13.194;2023-02-13T16:04:42;7.30;99.90
11772;DHT22;12556;55.748;13.194;2023-02-13T16:07:11;7.30;99.90
11772;DHT22;12556;55.748;13.194;2023-02-13T16:09:40;7.20;99.90
11772;DHT22;12556;55.748;13.194;2023-02-13T16:12:20;7.20;99.90
11772;DHT22;12556;55.748;13.194;2023-02-13T16:14:51;7.10;99.90
11772;DHT22;12556;55.748;13.194;2023-02-13T16:17:25;7.10;99.90
11772;DHT22;12556;55.748;13.194;2023-02-13T16:19:57;7.00;99.90